createdAt,value
2018-07-11T00:00:15.819Z,0.00
2018-07-11T00:01:15.806Z,0.00
2018-07-11T00:02:15.748Z,0.00
2018-07-11T00:03:15.706Z,0.00
2018-07-11T00:04:15.655Z,0.00
2018-07-11T00:05:15.615Z,0.00
2018-07-11T00:06:15.578Z,0.00
2018-07-11T00:07:15.561Z,0.00
2018-07-11T00:08:15.504Z,0.00
2018-07-11T00:09:15.464Z,0.00
2018-07-11T00:10:15.426Z,0.00
2018-07-11T00:11:15.385Z,0.00
2018-07-11T00:12:15.360Z,0.00
2018-07-11T00:13:15.305Z,0.00
2018-07-11T00:14:15.259Z,0.00
2018-07-11T00:15:15.222Z,0.00
2018-07-11T00:16:15.186Z,0.00
2018-07-11T00:17:15.174Z,0.00
2018-07-11T00:18:15.098Z,0.00
2018-07-11T00:19:15.061Z,0.00
2018-07-11T00:20:15.027Z,0.00
2018-07-11T00:21:14.984Z,0.00
2018-07-11T00:22:14.946Z,0.00
2018-07-11T00:23:14.926Z,0.00
2018-07-11T00:24:14.859Z,0.00
2018-07-11T00:25:14.818Z,0.00
2018-07-11T00:26:14.779Z,0.00
2018-07-11T00:27:14.745Z,0.00
2018-07-11T00:28:14.725Z,0.00
2018-07-11T00:29:14.666Z,0.00
2018-07-11T00:30:14.625Z,0.00
2018-07-11T00:31:14.590Z,0.00
2018-07-11T00:32:14.540Z,0.00
2018-07-11T00:33:14.523Z,0.00
2018-07-11T00:34:14.469Z,0.00
2018-07-11T00:35:14.425Z,0.00
2018-07-11T00:36:14.381Z,0.00
2018-07-11T00:37:14.386Z,0.00
2018-07-11T00:38:14.300Z,0.00
2018-07-11T00:39:14.278Z,0.00
2018-07-11T00:40:14.225Z,0.00
2018-07-11T00:41:14.184Z,0.00
2018-07-11T00:42:14.147Z,0.00
2018-07-11T00:43:14.105Z,0.00
2018-07-11T00:44:14.079Z,0.00
2018-07-11T00:45:14.020Z,0.00
2018-07-11T00:46:13.981Z,0.00
2018-07-11T00:47:13.940Z,0.00
2018-07-11T00:48:13.905Z,0.00
2018-07-11T00:49:13.892Z,0.00
2018-07-11T00:50:13.820Z,0.00
2018-07-11T00:51:13.781Z,0.00
2018-07-11T00:52:13.746Z,0.00
2018-07-11T00:53:13.711Z,0.00
2018-07-11T00:54:13.670Z,0.00
2018-07-11T00:55:13.646Z,0.00
2018-07-11T00:56:13.576Z,0.00
2018-07-11T00:57:13.536Z,0.00
2018-07-11T00:58:13.505Z,0.00
2018-07-11T00:59:13.460Z,0.00
2018-07-11T01:00:13.448Z,0.00
2018-07-11T01:01:13.388Z,0.00
2018-07-11T01:02:13.349Z,0.00
2018-07-11T01:03:13.305Z,0.00
2018-07-11T01:04:13.259Z,0.00
2018-07-11T01:05:13.239Z,0.00
2018-07-11T01:06:13.183Z,0.00
2018-07-11T01:07:13.146Z,0.00
2018-07-11T01:08:13.096Z,0.00
2018-07-11T01:09:13.058Z,0.00
2018-07-11T01:10:13.040Z,0.00
2018-07-11T01:11:12.976Z,0.00
2018-07-11T01:12:12.946Z,0.00
2018-07-11T01:13:12.906Z,0.00
2018-07-11T01:14:12.868Z,0.00
2018-07-11T01:15:12.852Z,0.00
2018-07-11T01:16:12.781Z,0.00
2018-07-11T01:17:12.738Z,0.00
2018-07-11T01:18:12.696Z,0.00
2018-07-11T01:19:12.666Z,0.00
2018-07-11T01:20:12.624Z,0.00
2018-07-11T01:21:12.604Z,0.00
2018-07-11T01:22:12.538Z,0.00
2018-07-11T01:23:12.497Z,0.00
2018-07-11T01:24:12.467Z,0.00
2018-07-11T01:25:12.427Z,0.00
2018-07-11T01:26:12.407Z,0.00
2018-07-11T01:27:12.346Z,0.00
2018-07-11T01:28:12.298Z,0.00
2018-07-11T01:29:12.259Z,0.00
2018-07-11T01:30:12.216Z,0.00
2018-07-11T01:31:12.176Z,0.00
2018-07-11T01:32:12.166Z,0.00
2018-07-11T01:33:12.105Z,0.00
2018-07-11T01:34:12.071Z,0.00
2018-07-11T01:35:12.024Z,0.00
2018-07-11T01:36:11.978Z,0.00
2018-07-11T01:37:11.965Z,0.00
2018-07-11T01:38:11.903Z,0.00
2018-07-11T01:39:11.862Z,0.00
2018-07-11T01:40:11.813Z,0.00
2018-07-11T01:41:11.774Z,0.00
2018-07-11T01:42:11.737Z,0.00
2018-07-11T01:43:11.717Z,0.00
2018-07-11T01:44:11.665Z,0.00
2018-07-11T01:45:11.622Z,0.00
2018-07-11T01:46:11.580Z,0.00
2018-07-11T01:47:11.543Z,0.00
2018-07-11T01:48:11.518Z,0.00
2018-07-11T01:49:11.459Z,0.00
2018-07-11T01:50:11.415Z,0.00
2018-07-11T01:51:11.372Z,0.00
2018-07-11T01:52:11.343Z,0.00
2018-07-11T01:53:11.321Z,0.00
2018-07-11T01:54:11.252Z,0.00
2018-07-11T01:55:11.215Z,0.00
2018-07-11T01:56:11.181Z,0.00
2018-07-11T01:57:11.139Z,0.00
2018-07-11T01:58:11.124Z,0.00
2018-07-11T01:59:11.059Z,0.00
2018-07-11T02:00:11.011Z,0.00
2018-07-11T02:01:10.975Z,0.00
2018-07-11T02:02:10.945Z,0.00
2018-07-11T02:03:10.910Z,0.00
2018-07-11T02:04:10.859Z,0.00
2018-07-11T02:05:10.818Z,0.00
2018-07-11T02:06:10.779Z,0.00
2018-07-11T02:07:10.748Z,0.00
2018-07-11T02:08:10.715Z,0.00
2018-07-11T02:09:10.650Z,0.00
2018-07-11T02:10:10.614Z,0.00
2018-07-11T02:11:10.575Z,0.00
2018-07-11T02:12:10.536Z,0.00
2018-07-11T02:13:10.519Z,0.00
2018-07-11T02:14:10.449Z,0.00
2018-07-11T02:15:10.409Z,0.00
2018-07-11T02:16:10.375Z,0.00
2018-07-11T02:17:10.334Z,0.00
2018-07-11T02:18:10.296Z,0.00
2018-07-11T02:19:10.280Z,0.00
2018-07-11T02:20:10.204Z,0.00
2018-07-11T02:21:10.166Z,0.00
2018-07-11T02:22:10.126Z,0.00
2018-07-11T02:23:10.085Z,0.00
2018-07-11T02:24:10.078Z,0.00
2018-07-11T02:25:10.012Z,0.00
2018-07-11T02:26:09.965Z,0.00
2018-07-11T02:27:09.923Z,0.00
2018-07-11T02:28:09.889Z,0.00
2018-07-11T02:29:09.878Z,0.00
2018-07-11T02:30:09.813Z,0.00
2018-07-11T02:31:09.772Z,0.00
2018-07-11T02:32:09.724Z,0.00
2018-07-11T02:33:09.683Z,0.00
2018-07-11T02:34:09.644Z,0.00
2018-07-11T02:35:09.631Z,0.00
2018-07-11T02:36:09.572Z,0.00
2018-07-11T02:37:09.529Z,0.00
2018-07-11T02:38:09.486Z,0.00
2018-07-11T02:39:09.449Z,0.00
2018-07-11T02:40:09.421Z,0.00
2018-07-11T02:41:09.359Z,0.00
2018-07-11T02:42:09.328Z,0.00
2018-07-11T02:43:09.285Z,0.00
2018-07-11T02:44:09.239Z,0.00
2018-07-11T02:45:09.226Z,0.00
2018-07-11T02:46:09.161Z,0.00
2018-07-11T02:47:09.115Z,0.00
2018-07-11T02:48:09.140Z,0.00
2018-07-11T02:49:09.043Z,0.00
2018-07-11T02:50:09.005Z,0.00
2018-07-11T02:51:08.987Z,0.00
2018-07-11T02:52:08.916Z,0.00
2018-07-11T02:53:08.874Z,0.00
2018-07-11T02:54:08.834Z,0.00
2018-07-11T02:55:08.792Z,0.00
2018-07-11T02:56:08.783Z,0.00
2018-07-11T02:57:08.720Z,0.00
2018-07-11T02:58:08.672Z,0.00
2018-07-11T02:59:08.632Z,0.00
2018-07-11T03:00:08.597Z,0.00
2018-07-11T03:01:08.591Z,0.00
2018-07-11T03:02:08.518Z,0.00
2018-07-11T03:03:08.471Z,0.00
2018-07-11T03:04:08.426Z,0.00
2018-07-11T03:05:08.390Z,0.00
2018-07-11T03:06:08.349Z,0.00
2018-07-11T03:07:08.329Z,0.00
2018-07-11T03:08:08.275Z,0.00
2018-07-11T03:09:08.231Z,0.00
2018-07-11T03:10:08.195Z,0.00
2018-07-11T03:11:08.151Z,0.00
2018-07-11T03:12:08.128Z,0.00
2018-07-11T03:13:08.066Z,0.00
2018-07-11T03:14:08.033Z,0.00
2018-07-11T03:15:07.992Z,0.00
2018-07-11T03:16:07.945Z,0.00
2018-07-11T03:17:07.928Z,5.63
2018-07-11T03:18:07.862Z,5.63
2018-07-11T03:19:07.833Z,5.63
2018-07-11T03:20:07.785Z,5.63
2018-07-11T03:21:07.748Z,5.63
2018-07-11T03:22:07.707Z,5.63
2018-07-11T03:23:07.689Z,5.63
2018-07-11T03:24:07.619Z,5.63
2018-07-11T03:25:07.576Z,11.25
2018-07-11T03:26:07.540Z,11.25
2018-07-11T03:27:07.512Z,11.25
2018-07-11T03:28:07.486Z,11.25
2018-07-11T03:29:07.425Z,11.25
2018-07-11T03:30:07.380Z,11.25
2018-07-11T03:31:07.336Z,16.88
2018-07-11T03:32:07.302Z,16.88
2018-07-11T03:33:07.284Z,16.88
2018-07-11T03:34:07.220Z,16.88
2018-07-11T03:35:07.175Z,16.88
2018-07-11T03:36:07.137Z,22.50
2018-07-11T03:37:07.089Z,22.50
2018-07-11T03:38:07.049Z,22.50
2018-07-11T03:39:07.031Z,22.50
2018-07-11T03:40:06.979Z,28.13
2018-07-11T03:41:06.938Z,28.13
2018-07-11T03:42:06.896Z,28.13
2018-07-11T03:43:06.856Z,28.13
2018-07-11T03:44:06.830Z,33.75
2018-07-11T03:45:06.766Z,33.75
2018-07-11T03:46:06.738Z,33.75
2018-07-11T03:47:06.694Z,33.75
2018-07-11T03:48:06.649Z,39.38
2018-07-11T03:49:06.627Z,39.38
2018-07-11T03:50:06.567Z,39.38
2018-07-11T03:51:06.522Z,45.00
2018-07-11T03:52:06.501Z,45.00
2018-07-11T03:53:06.452Z,45.00
2018-07-11T03:54:06.435Z,45.00
2018-07-11T03:55:06.370Z,50.63
2018-07-11T03:56:06.329Z,50.63
2018-07-11T03:57:06.284Z,50.63
2018-07-11T03:58:06.244Z,50.63
2018-07-11T03:59:06.198Z,56.25
2018-07-11T04:00:06.192Z,56.25
2018-07-11T04:01:06.126Z,56.25
2018-07-11T04:02:06.081Z,56.25
2018-07-11T04:03:06.040Z,56.25
2018-07-11T04:04:06.011Z,56.25
2018-07-11T04:05:05.984Z,61.88
2018-07-11T04:06:05.923Z,61.88
2018-07-11T04:07:05.884Z,61.88
2018-07-11T04:08:05.841Z,61.88
2018-07-11T04:09:05.795Z,61.88
2018-07-11T04:10:05.784Z,61.88
2018-07-11T04:11:05.715Z,67.50
2018-07-11T04:12:05.679Z,73.13
2018-07-11T04:13:05.639Z,73.13
2018-07-11T04:14:05.604Z,78.75
2018-07-11T04:15:05.562Z,84.38
2018-07-11T04:16:05.535Z,95.63
2018-07-11T04:17:05.470Z,101.25
2018-07-11T04:18:05.443Z,106.88
2018-07-11T04:19:05.455Z,106.88
2018-07-11T04:20:05.355Z,112.50
2018-07-11T04:21:05.335Z,118.13
2018-07-11T04:22:05.271Z,123.75
2018-07-11T04:23:05.233Z,129.38
2018-07-11T04:24:05.197Z,135.00
2018-07-11T04:25:05.155Z,146.25
2018-07-11T04:26:05.141Z,146.25
2018-07-11T04:27:05.078Z,146.25
2018-07-11T04:28:05.036Z,146.25
2018-07-11T04:29:04.998Z,146.25
2018-07-11T04:30:04.955Z,151.88
2018-07-11T04:31:04.934Z,146.25
2018-07-11T04:32:04.879Z,151.88
2018-07-11T04:33:04.836Z,168.75
2018-07-11T04:34:04.794Z,180.00
2018-07-11T04:35:04.750Z,185.63
2018-07-11T04:36:04.716Z,191.25
2018-07-11T04:37:04.705Z,196.88
2018-07-11T04:38:04.642Z,191.25
2018-07-11T04:39:04.605Z,191.25
2018-07-11T04:40:04.555Z,191.25
2018-07-11T04:41:04.519Z,196.88
2018-07-11T04:42:04.498Z,208.13
2018-07-11T04:43:04.436Z,219.38
2018-07-11T04:44:04.400Z,225.00
2018-07-11T04:45:04.367Z,225.00
2018-07-11T04:46:04.319Z,241.88
2018-07-11T04:47:04.306Z,247.50
2018-07-11T04:48:04.241Z,236.25
2018-07-11T04:49:04.197Z,230.63
2018-07-11T04:50:04.167Z,241.88
2018-07-11T04:51:04.123Z,253.13
2018-07-11T04:52:04.103Z,258.75
2018-07-11T04:53:04.047Z,286.88
2018-07-11T04:54:04.005Z,303.75
2018-07-11T04:55:03.960Z,286.88
2018-07-11T04:56:03.938Z,258.75
2018-07-11T04:57:03.890Z,253.13
2018-07-11T04:58:03.879Z,281.25
2018-07-11T04:59:03.814Z,303.75
2018-07-11T05:00:03.768Z,303.75
2018-07-11T05:01:03.727Z,303.75
2018-07-11T05:02:03.690Z,315.00
2018-07-11T05:03:03.685Z,337.50
2018-07-11T05:04:03.644Z,348.75
2018-07-11T05:05:03.677Z,337.50
2018-07-11T05:06:03.540Z,354.38
2018-07-11T05:07:03.510Z,399.38
2018-07-11T05:08:03.464Z,483.75
2018-07-11T05:09:03.447Z,483.75
2018-07-11T05:10:03.385Z,455.63
2018-07-11T05:11:03.393Z,438.75
2018-07-11T05:12:03.299Z,450.00
2018-07-11T05:13:03.264Z,444.38
2018-07-11T05:14:03.248Z,450.00
2018-07-11T05:15:03.186Z,478.13
2018-07-11T05:16:03.185Z,433.13
2018-07-11T05:17:03.118Z,388.13
2018-07-11T05:18:03.080Z,500.63
2018-07-11T05:19:03.067Z,528.75
2018-07-11T05:20:03.001Z,540.00
2018-07-11T05:21:02.961Z,523.13
2018-07-11T05:22:02.931Z,416.25
2018-07-11T05:23:02.893Z,360.00
2018-07-11T05:24:02.875Z,309.38
2018-07-11T05:25:02.814Z,298.13
2018-07-11T05:26:02.779Z,320.63
2018-07-11T05:27:02.741Z,371.25
2018-07-11T05:28:02.711Z,343.13
2018-07-11T05:29:02.673Z,275.63
2018-07-11T05:30:02.662Z,270.00
2018-07-11T05:31:02.601Z,253.13
2018-07-11T05:32:02.560Z,343.13
2018-07-11T05:33:02.521Z,371.25
2018-07-11T05:34:02.484Z,545.63
2018-07-11T05:35:02.467Z,590.63
2018-07-11T05:36:02.418Z,601.88
2018-07-11T05:37:02.384Z,618.75
2018-07-11T05:38:02.336Z,630.00
2018-07-11T05:39:02.299Z,663.75
2018-07-11T05:40:02.296Z,742.50
2018-07-11T05:41:02.239Z,810.00
2018-07-11T05:42:02.198Z,849.38
2018-07-11T05:43:02.160Z,843.75
2018-07-11T05:44:02.119Z,832.50
2018-07-11T05:45:02.087Z,804.38
2018-07-11T05:46:02.077Z,787.50
2018-07-11T05:47:02.016Z,781.88
2018-07-11T05:48:01.998Z,821.25
2018-07-11T05:49:01.950Z,877.50
2018-07-11T05:50:01.918Z,860.63
2018-07-11T05:51:01.903Z,843.75
2018-07-11T05:52:01.881Z,866.25
2018-07-11T05:53:01.808Z,933.75
2018-07-11T05:54:01.778Z,928.13
2018-07-11T05:55:01.741Z,883.13
2018-07-11T05:56:01.719Z,905.63
2018-07-11T05:57:01.668Z,911.25
2018-07-11T05:58:01.635Z,798.75
2018-07-11T05:59:01.608Z,725.63
2018-07-11T06:00:01.607Z,725.63
2018-07-11T06:01:01.563Z,725.63
2018-07-11T06:02:01.502Z,731.25
2018-07-11T06:03:01.469Z,736.88
2018-07-11T06:04:01.430Z,736.88
2018-07-11T06:05:01.397Z,748.13
2018-07-11T06:06:01.360Z,759.38
2018-07-11T06:07:01.349Z,753.75
2018-07-11T06:08:01.302Z,748.13
2018-07-11T06:09:01.273Z,753.75
2018-07-11T06:10:01.229Z,748.13
2018-07-11T06:11:01.193Z,742.50
2018-07-11T06:12:01.189Z,748.13
2018-07-11T06:13:01.137Z,748.13
2018-07-11T06:14:01.104Z,753.75
2018-07-11T06:15:01.068Z,748.13
2018-07-11T06:16:01.028Z,753.75
2018-07-11T06:17:01.023Z,753.75
2018-07-11T06:18:00.964Z,748.13
2018-07-11T06:19:00.928Z,748.13
2018-07-11T06:20:00.905Z,753.75
2018-07-11T06:21:00.893Z,753.75
2018-07-11T06:22:00.838Z,759.38
2018-07-11T06:23:00.831Z,765.00
2018-07-11T06:24:00.766Z,759.38
2018-07-11T06:25:00.733Z,759.38
2018-07-11T06:26:00.709Z,765.00
2018-07-11T06:27:00.675Z,765.00
2018-07-11T06:28:00.680Z,765.00
2018-07-11T06:29:00.605Z,765.00
2018-07-11T06:30:00.577Z,770.63
2018-07-11T06:31:00.538Z,776.25
2018-07-11T06:32:00.515Z,776.25
2018-07-11T06:33:00.512Z,787.50
2018-07-11T06:34:00.453Z,787.50
2018-07-11T06:35:00.418Z,793.13
2018-07-11T06:36:00.376Z,793.13
2018-07-11T06:37:00.352Z,798.75
2018-07-11T06:38:00.384Z,804.38
2018-07-11T06:39:00.303Z,810.00
2018-07-11T06:40:00.257Z,815.63
2018-07-11T06:41:00.224Z,821.25
2018-07-11T06:42:00.188Z,821.25
2018-07-11T06:43:00.153Z,826.88
2018-07-11T06:44:00.156Z,826.88
2018-07-11T06:45:00.115Z,832.50
2018-07-11T06:46:00.071Z,832.50
2018-07-11T06:47:00.037Z,838.13
2018-07-11T06:48:00.041Z,838.13
2018-07-11T06:48:59.985Z,843.75
2018-07-11T06:49:59.935Z,860.63
2018-07-11T06:50:59.900Z,860.63
2018-07-11T06:51:59.947Z,866.25
2018-07-11T06:52:59.844Z,866.25
2018-07-11T06:53:59.834Z,866.25
2018-07-11T06:54:59.774Z,871.88
2018-07-11T06:55:59.787Z,883.13
2018-07-11T06:56:59.710Z,883.13
2018-07-11T06:57:59.688Z,883.13
2018-07-11T06:58:59.648Z,888.75
2018-07-11T06:59:59.633Z,888.75
2018-07-11T07:00:59.579Z,900.00
2018-07-11T07:01:59.547Z,900.00
2018-07-11T07:02:59.521Z,905.63
2018-07-11T07:03:59.491Z,911.25
2018-07-11T07:04:59.486Z,922.50
2018-07-11T07:05:59.430Z,928.13
2018-07-11T07:06:59.396Z,933.75
2018-07-11T07:07:59.357Z,939.38
2018-07-11T07:08:59.325Z,945.00
2018-07-11T07:09:59.324Z,945.00
2018-07-11T07:10:59.266Z,956.25
2018-07-11T07:11:59.240Z,967.50
2018-07-11T07:12:59.209Z,973.13
2018-07-11T07:13:59.173Z,984.38
2018-07-11T07:14:59.140Z,995.63
2018-07-11T07:15:59.139Z,1006.88
2018-07-11T07:16:59.088Z,1018.13
2018-07-11T07:17:59.054Z,1029.38
2018-07-11T07:18:59.024Z,1035.00
2018-07-11T07:19:58.982Z,1029.38
2018-07-11T07:20:58.976Z,1035.00
2018-07-11T07:21:58.922Z,1057.50
2018-07-11T07:22:58.891Z,1063.13
2018-07-11T07:23:58.868Z,1063.13
2018-07-11T07:24:58.836Z,1068.75
2018-07-11T07:25:58.839Z,1074.38
2018-07-11T07:26:58.778Z,1091.25
2018-07-11T07:27:58.740Z,1113.75
2018-07-11T07:28:58.735Z,1119.38
2018-07-11T07:29:58.687Z,1119.38
2018-07-11T07:30:58.662Z,1130.63
2018-07-11T07:31:58.636Z,1130.63
2018-07-11T07:32:58.580Z,1141.88
2018-07-11T07:33:58.557Z,1153.13
2018-07-11T07:34:58.525Z,1158.75
2018-07-11T07:35:58.498Z,1175.63
2018-07-11T07:36:58.488Z,1186.88
2018-07-11T07:37:58.435Z,1198.13
2018-07-11T07:38:58.402Z,1209.38
2018-07-11T07:39:58.363Z,1215.00
2018-07-11T07:40:58.336Z,1215.00
2018-07-11T07:41:58.331Z,1209.38
2018-07-11T07:42:58.275Z,1237.50
2018-07-11T07:43:58.250Z,1231.88
2018-07-11T07:44:58.224Z,1231.88
2018-07-11T07:45:58.186Z,1248.75
2018-07-11T07:46:58.207Z,1260.00
2018-07-11T07:47:58.130Z,1282.50
2018-07-11T07:48:58.096Z,1305.00
2018-07-11T07:49:58.089Z,1310.63
2018-07-11T07:50:58.035Z,1299.38
2018-07-11T07:51:57.995Z,1299.38
2018-07-11T07:52:58.050Z,1305.00
2018-07-11T07:53:57.945Z,1321.88
2018-07-11T07:54:57.909Z,1316.25
2018-07-11T07:55:57.884Z,1333.13
2018-07-11T07:56:57.854Z,1327.50
2018-07-11T07:57:57.848Z,1355.63
2018-07-11T07:58:57.795Z,1355.63
2018-07-11T07:59:57.756Z,1372.50
2018-07-11T08:00:57.724Z,1372.50
2018-07-11T08:01:57.709Z,1383.75
2018-07-11T08:02:57.674Z,1411.88
2018-07-11T08:03:57.655Z,1440.00
2018-07-11T08:04:57.610Z,1501.88
2018-07-11T08:05:57.576Z,1563.75
2018-07-11T08:06:57.562Z,1530.00
2018-07-11T08:07:57.521Z,1530.00
2018-07-11T08:08:57.513Z,1614.38
2018-07-11T08:09:57.464Z,1586.25
2018-07-11T08:10:57.430Z,1490.63
2018-07-11T08:11:57.392Z,1591.88
2018-07-11T08:12:57.369Z,1800.00
2018-07-11T08:13:57.359Z,1777.50
2018-07-11T08:14:57.306Z,1743.75
2018-07-11T08:15:57.286Z,1777.50
2018-07-11T08:16:57.252Z,1771.88
2018-07-11T08:17:57.222Z,1816.88
2018-07-11T08:18:57.214Z,1833.75
2018-07-11T08:19:57.168Z,1878.75
2018-07-11T08:20:57.139Z,1918.13
2018-07-11T08:21:57.105Z,2075.63
2018-07-11T08:22:57.080Z,2323.13
2018-07-11T08:23:57.043Z,2801.25
2018-07-11T08:24:57.029Z,1080.00
2018-07-11T08:25:56.994Z,1558.13
2018-07-11T08:26:56.952Z,4252.50
2018-07-11T08:27:56.931Z,4725.00
2018-07-11T08:28:56.902Z,4882.50
2018-07-11T08:29:56.901Z,4618.13
2018-07-11T08:30:56.845Z,4162.50
2018-07-11T08:31:56.808Z,3881.25
2018-07-11T08:32:56.776Z,1029.38
2018-07-11T08:33:56.758Z,1012.50
2018-07-11T08:34:56.723Z,1108.13
2018-07-11T08:35:56.709Z,1215.00
2018-07-11T08:36:56.656Z,1288.13
2018-07-11T08:37:56.627Z,1665.00
2018-07-11T08:38:56.595Z,2947.50
2018-07-11T08:39:56.573Z,1001.25
2018-07-11T08:40:56.565Z,928.13
2018-07-11T08:41:56.513Z,1012.50
2018-07-11T08:42:56.487Z,1108.13
2018-07-11T08:43:56.442Z,995.63
2018-07-11T08:44:56.411Z,1231.88
2018-07-11T08:45:56.380Z,1755.00
2018-07-11T08:46:56.369Z,1800.00
2018-07-11T08:47:56.383Z,2064.38
2018-07-11T08:48:56.290Z,4443.75
2018-07-11T08:49:56.251Z,1738.13
2018-07-11T08:50:56.224Z,1468.13
2018-07-11T08:51:56.247Z,1777.50
2018-07-11T08:52:56.167Z,1670.63
2018-07-11T08:53:56.133Z,1203.75
2018-07-11T08:54:56.099Z,1220.63
2018-07-11T08:55:56.078Z,1822.50
2018-07-11T08:56:56.031Z,1518.75
2018-07-11T08:57:56.024Z,1631.25
2018-07-11T08:58:55.967Z,1968.75
2018-07-11T08:59:55.940Z,3515.63
2018-07-11T09:00:55.907Z,4286.25
2018-07-11T09:01:55.873Z,2176.88
2018-07-11T09:02:55.846Z,3256.88
2018-07-11T09:03:55.831Z,3909.38
2018-07-11T09:04:55.771Z,4522.50
2018-07-11T09:05:55.748Z,2390.63
2018-07-11T09:06:55.714Z,2559.38
2018-07-11T09:07:55.676Z,2075.63
2018-07-11T09:08:55.649Z,1991.25
2018-07-11T09:09:55.634Z,2070.00
2018-07-11T09:10:55.652Z,2075.63
2018-07-11T09:11:55.556Z,3420.00
2018-07-11T09:12:55.527Z,2160.00
2018-07-11T09:13:55.497Z,3127.50
2018-07-11T09:14:55.491Z,2266.88
2018-07-11T09:15:55.424Z,4016.25
2018-07-11T09:16:55.392Z,2638.13
2018-07-11T09:17:55.418Z,2745.00
2018-07-11T09:18:55.333Z,4848.75
2018-07-11T09:19:55.306Z,2238.75
2018-07-11T09:20:55.303Z,3189.38
2018-07-11T09:21:55.240Z,2925.00
2018-07-11T09:22:55.206Z,3358.13
2018-07-11T09:23:55.197Z,2615.63
2018-07-11T09:24:55.152Z,2103.75
2018-07-11T09:25:55.126Z,2092.50
2018-07-11T09:26:55.122Z,2463.75
2018-07-11T09:27:55.054Z,2306.25
2018-07-11T09:28:55.025Z,2210.63
2018-07-11T09:29:54.996Z,2272.50
2018-07-11T09:30:54.965Z,2216.25
2018-07-11T09:31:54.938Z,2041.88
2018-07-11T09:32:54.934Z,1800.00
2018-07-11T09:33:54.880Z,1608.75
2018-07-11T09:34:54.852Z,1366.88
2018-07-11T09:35:54.811Z,1271.25
2018-07-11T09:36:54.781Z,1276.88
2018-07-11T09:37:54.784Z,1406.25
2018-07-11T09:38:54.727Z,1631.25
2018-07-11T09:39:54.689Z,2193.75
2018-07-11T09:40:54.661Z,2463.75
2018-07-11T09:41:54.627Z,2278.13
2018-07-11T09:42:54.619Z,2688.75
2018-07-11T09:43:54.570Z,2705.63
2018-07-11T09:44:54.537Z,2289.38
2018-07-11T09:45:54.507Z,2632.50
2018-07-11T09:46:54.478Z,2806.88
2018-07-11T09:47:54.467Z,2846.25
2018-07-11T09:48:54.406Z,2660.63
2018-07-11T09:49:54.379Z,2480.63
2018-07-11T09:50:54.344Z,2334.38
2018-07-11T09:51:54.323Z,2413.13
2018-07-11T09:52:54.289Z,2334.38
2018-07-11T09:53:54.277Z,2401.88
2018-07-11T09:54:54.271Z,2531.25
2018-07-11T09:55:54.198Z,2756.25
2018-07-11T09:56:54.170Z,2998.13
2018-07-11T09:57:54.136Z,2272.50
2018-07-11T09:58:54.132Z,1698.75
2018-07-11T09:59:54.066Z,1473.75
2018-07-11T10:00:54.039Z,1361.25
2018-07-11T10:01:54.005Z,1395.00
2018-07-11T10:02:53.973Z,1108.13
2018-07-11T10:03:53.975Z,1130.63
2018-07-11T10:04:53.916Z,1243.13
2018-07-11T10:05:53.889Z,1378.13
2018-07-11T10:06:53.863Z,1681.88
2018-07-11T10:07:53.817Z,2058.75
2018-07-11T10:08:53.788Z,1878.75
2018-07-11T10:09:53.783Z,1271.25
2018-07-11T10:10:53.733Z,1108.13
2018-07-11T10:11:53.713Z,1102.50
2018-07-11T10:12:53.664Z,1288.13
2018-07-11T10:13:53.632Z,4488.75
2018-07-11T10:14:53.629Z,4320.00
2018-07-11T10:15:53.573Z,3780.00
2018-07-11T10:16:53.544Z,3555.00
2018-07-11T10:17:53.513Z,2283.75
2018-07-11T10:18:53.485Z,2413.13
2018-07-11T10:19:53.461Z,2075.63
2018-07-11T10:20:53.412Z,2531.25
2018-07-11T10:21:53.380Z,1636.88
2018-07-11T10:22:53.351Z,2553.75
2018-07-11T10:23:53.323Z,4398.75
2018-07-11T10:24:53.314Z,4455.00
2018-07-11T10:25:53.255Z,4370.63
2018-07-11T10:26:53.227Z,4651.88
2018-07-11T10:27:53.199Z,2565.00
2018-07-11T10:28:53.172Z,4342.50
2018-07-11T10:29:53.167Z,4691.25
2018-07-11T10:30:53.108Z,1355.63
2018-07-11T10:31:53.073Z,1035.00
2018-07-11T10:32:53.044Z,956.25
2018-07-11T10:33:53.017Z,1035.00
2018-07-11T10:34:52.987Z,1108.13
2018-07-11T10:35:52.980Z,1417.50
2018-07-11T10:36:52.930Z,1220.63
2018-07-11T10:37:52.900Z,1170.00
2018-07-11T10:38:52.868Z,1175.63
2018-07-11T10:39:52.833Z,2340.00
2018-07-11T10:40:52.827Z,2930.63
2018-07-11T10:41:52.776Z,2891.25
2018-07-11T10:42:52.747Z,4359.38
2018-07-11T10:43:52.710Z,4393.13
2018-07-11T10:44:52.717Z,1743.75
2018-07-11T10:45:52.648Z,4083.75
2018-07-11T10:46:52.637Z,4100.63
2018-07-11T10:47:52.589Z,4314.38
2018-07-11T10:48:52.558Z,4404.38
2018-07-11T10:49:52.525Z,4145.63
2018-07-11T10:50:52.507Z,4280.63
2018-07-11T10:51:52.479Z,4471.88
2018-07-11T10:52:52.432Z,4741.88
2018-07-11T10:53:52.403Z,3875.63
2018-07-11T10:54:52.372Z,4314.38
2018-07-11T10:55:52.347Z,4415.63
2018-07-11T10:56:52.345Z,4651.88
2018-07-11T10:57:52.388Z,4865.63
2018-07-11T10:58:52.256Z,4702.50
2018-07-11T10:59:52.237Z,4477.50
2018-07-11T11:01:05.024Z,4381.88
2018-07-11T11:01:52.204Z,4488.75
2018-07-11T11:02:52.148Z,4522.50
2018-07-11T11:03:52.114Z,4494.38
2018-07-11T11:04:52.131Z,4606.88
2018-07-11T11:05:52.061Z,4837.50
2018-07-11T11:06:52.033Z,4786.88
2018-07-11T11:07:52.089Z,1237.50
2018-07-11T11:08:51.989Z,1305.00
2018-07-11T11:09:51.960Z,1158.75
2018-07-11T11:10:51.936Z,1260.00
2018-07-11T11:11:51.898Z,4590.00
2018-07-11T11:12:51.893Z,4792.50
2018-07-11T11:13:51.857Z,4764.38
2018-07-11T11:14:51.822Z,3763.13
2018-07-11T11:15:51.789Z,3200.63
2018-07-11T11:16:51.765Z,2008.13
2018-07-11T11:17:51.759Z,1845.00
2018-07-11T11:18:51.706Z,2126.25
2018-07-11T11:19:51.688Z,5011.88
2018-07-11T11:20:51.657Z,3993.75
2018-07-11T11:21:51.634Z,1850.63
2018-07-11T11:22:51.601Z,3616.88
2018-07-11T11:23:51.590Z,3037.50
2018-07-11T11:24:51.541Z,4865.63
2018-07-11T11:25:51.514Z,5445.00
2018-07-11T11:26:51.490Z,4792.50
2018-07-11T11:27:51.463Z,4708.13
2018-07-11T11:28:51.458Z,1861.88
2018-07-11T11:29:51.406Z,1350.00
2018-07-11T11:30:51.375Z,1125.00
2018-07-11T11:31:51.408Z,973.13
2018-07-11T11:32:51.326Z,855.00
2018-07-11T11:33:51.321Z,765.00
2018-07-11T11:34:51.268Z,703.13
2018-07-11T11:35:51.236Z,652.50
2018-07-11T11:36:51.207Z,618.75
2018-07-11T11:37:51.179Z,585.00
2018-07-11T11:38:51.175Z,579.38
2018-07-11T11:39:51.124Z,601.88
2018-07-11T11:40:51.098Z,613.13
2018-07-11T11:41:51.216Z,641.25
2018-07-11T11:42:51.043Z,686.25
2018-07-11T11:43:50.999Z,725.63
2018-07-11T11:44:50.990Z,765.00
2018-07-11T11:45:50.942Z,787.50
2018-07-11T11:46:50.916Z,838.13
2018-07-11T11:47:50.878Z,894.38
2018-07-11T11:48:50.845Z,1001.25
2018-07-11T11:49:50.838Z,1203.75
2018-07-11T11:50:50.781Z,1507.50
2018-07-11T11:51:50.758Z,3487.50
2018-07-11T11:52:50.728Z,4359.38
2018-07-11T11:53:50.695Z,4511.25
2018-07-11T11:54:50.660Z,4781.25
2018-07-11T11:55:50.644Z,4764.38
2018-07-11T11:56:50.594Z,3875.63
2018-07-11T11:57:50.561Z,3448.13
2018-07-11T11:58:50.530Z,2452.50
2018-07-11T11:59:50.503Z,2632.50
2018-07-11T12:00:50.542Z,2593.13
2018-07-11T12:01:50.499Z,2008.13
2018-07-11T12:02:50.407Z,1614.38
2018-07-11T12:03:50.385Z,1445.63
2018-07-11T12:04:50.354Z,1755.00
2018-07-11T12:05:50.351Z,1845.00
2018-07-11T12:06:50.294Z,3110.63
2018-07-11T12:07:50.255Z,4612.50
2018-07-11T12:08:50.228Z,4410.00
2018-07-11T12:09:50.194Z,4775.63
2018-07-11T12:10:50.189Z,4466.25
2018-07-11T12:11:50.143Z,4471.88
2018-07-11T12:12:50.112Z,4505.63
2018-07-11T12:13:50.082Z,4483.13
2018-07-11T12:14:50.054Z,2885.63
2018-07-11T12:15:50.015Z,4567.50
2018-07-11T12:16:50.004Z,4286.25
2018-07-11T12:17:49.964Z,4865.63
2018-07-11T12:18:49.934Z,4781.25
2018-07-11T12:19:49.899Z,3240.00
2018-07-11T12:20:49.868Z,2970.00
2018-07-11T12:21:49.863Z,3009.38
2018-07-11T12:22:49.812Z,4629.38
2018-07-11T12:23:49.790Z,4770.00
2018-07-11T12:24:49.761Z,4938.75
2018-07-11T12:25:49.732Z,4995.00
2018-07-11T12:26:49.731Z,2885.63
2018-07-11T12:27:49.666Z,3076.88
2018-07-11T12:28:49.636Z,2598.75
2018-07-11T12:29:49.613Z,2750.63
2018-07-11T12:30:49.585Z,2373.75
2018-07-11T12:31:49.560Z,2148.75
2018-07-11T12:32:49.551Z,2098.13